Time;durP1;ratioP1;P1;durP2;ratioP2;P2;SDS_P1;SDS_P2;PMS_P1;PMS_P2;Temp;Humidity;BMP_temperature;BMP_pressure;BME280_temperature;BME280_humidity;BME280_pressure;Samples;Min_cycle;Max_cycle;Signal;HPM_P1;HPM_P2
2023/05/05 00:02:24;;;;;;;2.40;0.43;;;;;;;21.20;41.98;101495.13;20987810;28;20041;-72
2023/05/05 00:12:28;;;;;;;20.05;2.05;;;;;;;21.10;42.30;101483.97;20972148;28;20095;-72
2023/05/05 00:22:29;;;;;;;3.97;0.60;;;;;;;21.39;42.37;101520.59;20997596;28;20049;-73
2023/05/05 00:32:30;;;;;;;8.77;1.33;;;;;;;21.31;42.19;101517.25;21002446;28;20438;-73
2023/05/05 00:42:51;;;;;;;5.10;0.63;;;;;;;21.32;42.07;101529.22;20998440;28;20377;-72
2023/05/05 00:52:56;;;;;;;4.60;1.02;;;;;;;21.40;42.19;101556.56;20999187;28;20040;-74
2023/05/05 01:02:58;;;;;;;3.13;0.95;;;;;;;21.36;42.13;101574.06;20930360;28;20041;-73
2023/05/05 01:13:28;;;;;;;2.33;1.10;;;;;;;21.02;42.18;101550.13;21001043;28;20101;-73
2023/05/05 01:23:38;;;;;;;3.92;0.85;;;;;;;21.39;42.07;101598.56;20960251;28;20074;-73
2023/05/05 01:33:53;;;;;;;5.60;0.93;;;;;;;21.30;42.07;101612.09;20988818;28;20066;-73
2023/05/05 01:43:56;;;;;;;6.93;0.90;;;;;;;21.33;42.20;101621.91;20967037;28;20053;-73
2023/05/05 01:54:00;;;;;;;4.00;0.88;;;;;;;21.29;42.64;101632.72;20990071;28;20408;-72
2023/05/05 02:04:03;;;;;;;3.22;0.68;;;;;;;21.26;42.89;101641.63;20991418;28;20063;-73
2023/05/05 02:14:08;;;;;;;4.15;0.57;;;;;;;21.33;43.03;101655.31;21007501;28;20044;-74
2023/05/05 02:24:09;;;;;;;3.30;0.77;;;;;;;21.33;44.74;101672.03;21019466;28;20476;-73
2023/05/05 02:34:15;;;;;;;9.38;0.93;;;;;;;21.31;44.84;101680.66;21052140;28;20024;-74
2023/05/05 02:44:18;;;;;;;7.72;0.98;;;;;;;21.05;44.93;101646.16;20995669;28;20044;-74
2023/05/05 02:54:20;;;;;;;1.63;1.13;;;;;;;21.30;44.43;101702.06;21022324;28;20044;-73
2023/05/05 03:04:53;;;;;;;3.22;0.70;;;;;;;21.24;44.47;101688.34;21002692;28;20044;-74
2023/05/05 03:14:59;;;;;;;3.40;0.85;;;;;;;21.28;44.03;101698.69;21052027;28;20044;-74
2023/05/05 03:25:05;;;;;;;2.95;1.00;;;;;;;21.23;44.43;101706.16;21045902;28;20541;-74
2023/05/05 03:35:06;;;;;;;1.73;0.50;;;;;;;21.22;44.15;101723.97;20956236;28;20094;-74
2023/05/05 03:45:10;;;;;;;3.38;0.65;;;;;;;21.23;43.85;101734.00;20933419;28;20369;-74
2023/05/05 03:55:17;;;;;;;2.05;0.50;;;;;;;21.21;44.00;101745.41;21000215;28;20020;-73
2023/05/05 04:05:19;;;;;;;0.98;0.80;;;;;;;21.21;43.95;101762.09;20997847;28;20078;-74
2023/05/05 04:15:20;;;;;;;1.30;1.05;;;;;;;21.04;44.21;101737.16;21000946;28;20070;-73
2023/05/05 04:25:21;;;;;;;1.73;0.50;;;;;;;21.18;44.02;101762.63;21003288;28;20040;-72
2023/05/05 04:35:23;;;;;;;1.40;0.50;;;;;;;20.96;44.02;101734.00;20996216;28;20101;-74
2023/05/05 04:45:24;;;;;;;3.83;0.75;;;;;;;21.14;44.22;101775.38;21006675;28;20044;-75
2023/05/05 04:55:26;;;;;;;1.83;0.50;;;;;;;21.12;44.07;101788.72;20963358;28;20044;-73
2023/05/05 05:05:28;;;;;;;1.02;0.50;;;;;;;21.10;44.24;101790.91;20985681;28;20118;-74
2023/05/05 05:15:29;;;;;;;1.70;0.57;;;;;;;20.87;43.71;101752.25;20949520;28;20028;-73
2023/05/05 05:25:31;;;;;;;1.23;0.80;;;;;;;21.10;44.00;101779.78;21008944;28;20036;-74
2023/05/05 05:35:32;;;;;;;0.65;0.57;;;;;;;21.05;43.86;101779.72;20990073;28;20044;-74
2023/05/05 05:45:33;;;;;;;1.02;0.52;;;;;;;21.09;43.78;101778.09;20994571;28;20503;-74
2023/05/05 05:55:35;;;;;;;1.10;0.77;;;;;;;20.96;43.99;101759.03;20993875;28;20094;-74
2023/05/05 06:05:36;;;;;;;1.15;0.70;;;;;;;21.05;44.03;101788.91;20991800;28;20102;-73
2023/05/05 06:15:37;;;;;;;0.70;0.52;;;;;;;20.95;43.64;101782.41;20993382;28;20032;-73
2023/05/05 06:25:39;;;;;;;0.80;0.60;;;;;;;21.01;43.73;101809.19;21019118;28;20105;-73
2023/05/05 06:35:40;;;;;;;0.57;0.50;;;;;;;21.04;43.62;101797.53;21016925;28;20082;-74
2023/05/05 06:45:42;;;;;;;0.90;0.60;;;;;;;20.78;43.61;101766.63;20983439;28;20453;-73
2023/05/05 06:55:52;;;;;;;0.77;0.50;;;;;;;21.03;43.82;101815.34;21040365;28;20135;-73
2023/05/05 07:05:53;;;;;;;1.60;0.70;;;;;;;21.02;43.82;101821.97;20994844;28;20066;-73
2023/05/05 07:15:55;;;;;;;1.95;0.80;;;;;;;20.50;43.48;101730.69;20992255;28;20036;-73
2023/05/05 07:25:57;;;;;;;0.60;0.55;;;;;;;21.01;43.80;101821.16;21022781;28;20560;-73
2023/05/05 07:35:58;;;;;;;1.27;0.73;;;;;;;20.92;43.66;101807.97;20990375;28;20040;-74
2023/05/05 07:46:00;;;;;;;1.42;0.85;;;;;;;20.98;43.85;101809.69;20998771;28;20037;-73
2023/05/05 07:56:02;;;;;;;1.38;0.60;;;;;;;20.88;43.74;101795.66;21005900;28;20090;-73
2023/05/05 08:06:10;;;;;;;0.95;0.70;;;;;;;20.94;43.90;101819.69;21005334;28;20029;-73
2023/05/05 08:16:15;;;;;;;1.23;0.70;;;;;;;20.80;43.74;101789.47;20997688;28;20031;-73
2023/05/05 08:26:19;;;;;;;0.77;0.60;;;;;;;20.92;43.91;101802.38;20924202;28;20060;-73
2023/05/05 08:36:20;;;;;;;1.13;0.52;;;;;;;20.84;43.89;101794.50;20989857;28;20125;-73
2023/05/05 08:46:29;;;;;;;0.90;0.73;;;;;;;20.89;43.82;101816.81;21018775;28;20115;-73
2023/05/05 08:56:33;;;;;;;1.70;0.68;;;;;;;20.87;43.91;101808.72;20994370;28;20053;-73
2023/05/05 09:06:35;;;;;;;1.10;0.88;;;;;;;20.86;43.98;101828.47;21001470;28;20045;-73
2023/05/05 09:16:42;;;;;;;0.85;0.70;;;;;;;20.84;43.80;101836.22;20999778;28;20048;-74
2023/05/05 09:26:47;;;;;;;2.63;0.70;;;;;;;20.82;43.93;101847.63;21011172;28;20389;-74
2023/05/05 09:36:48;;;;;;;1.58;0.82;;;;;;;20.81;43.80;101849.56;21005603;28;20032;-73
2023/05/05 09:46:54;;;;;;;1.52;0.70;;;;;;;20.80;43.79;101869.28;21000975;28;20396;-73
2023/05/05 09:56:56;;;;;;;2.58;0.75;;;;;;;20.78;43.67;101880.66;21037853;28;20032;-76
2023/05/05 10:06:58;;;;;;;1.98;0.60;;;;;;;20.77;43.93;101904.03;21029672;28;20488;-73
2023/05/05 10:17:00;;;;;;;0.80;0.73;;;;;;;20.65;43.62;101897.72;20957569;28;20044;-73
2023/05/05 10:27:08;;;;;;;2.42;0.95;;;;;;;20.70;43.88;101925.59;20998547;28;20036;-73
2023/05/05 10:37:10;;;;;;;2.60;0.77;;;;;;;20.76;43.89;101957.97;21007293;28;20032;-72
2023/05/05 10:47:12;;;;;;;5.93;1.02;;;;;;;20.62;43.44;101947.44;20993254;28;20044;-72
2023/05/05 10:57:15;;;;;;;5.28;1.10;;;;;;;20.50;43.65;101953.13;21068042;28;20097;-72
2023/05/05 11:07:28;;;;;;;3.70;0.90;;;;;;;20.59;43.43;101996.09;21040520;28;20090;-72
2023/05/05 11:17:48;;;;;;;3.10;0.82;;;;;;;20.72;43.49;102029.13;20996065;28;20036;-71
2023/05/05 11:28:10;;;;;;;3.70;1.10;;;;;;;20.67;43.40;102037.41;20920844;28;20041;-72
2023/05/05 11:38:13;;;;;;;8.70;1.10;;;;;;;20.66;43.68;102037.63;20924086;28;20045;-71
2023/05/05 11:48:25;;;;;;;5.07;1.13;;;;;;;20.53;43.41;102030.47;20921632;28;20110;-72
2023/05/05 11:58:27;;;;;;;3.22;1.15;;;;;;;20.13;43.42;101984.16;20922541;28;20415;-72
2023/05/05 12:08:35;;;;;;;2.10;1.10;;;;;;;20.72;43.52;102090.31;20922019;28;20045;-72
2023/05/05 12:18:40;;;;;;;1.07;0.87;;;;;;;20.71;43.19;102088.63;20921237;28;20485;-71
2023/05/05 12:28:46;;;;;;;1.60;1.05;;;;;;;20.63;43.20;102085.44;20919865;28;20044;-72
2023/05/05 12:38:48;;;;;;;1.77;1.00;;;;;;;20.54;43.57;102087.78;20919880;28;20091;-71
2023/05/05 12:49:04;;;;;;;3.22;1.23;;;;;;;20.73;43.32;102124.53;20918538;28;20446;-72
2023/05/05 12:59:09;;;;;;;1.50;0.80;;;;;;;20.76;43.21;102144.34;20918385;28;20040;-72
2023/05/05 13:09:24;;;;;;;3.17;1.30;;;;;;;20.71;43.32;102146.19;20918403;28;20040;-72
2023/05/05 13:19:26;;;;;;;2.05;1.30;;;;;;;20.77;43.37;102165.50;20916774;28;20045;-72
2023/05/05 13:29:27;;;;;;;1.77;1.20;;;;;;;20.75;43.00;102159.34;20915787;28;20083;-72
2023/05/05 13:39:35;;;;;;;1.70;1.17;;;;;;;20.79;43.10;102171.66;20913472;28;20036;-72
2023/05/05 13:49:37;;;;;;;1.60;1.00;;;;;;;20.66;43.00;102146.94;20914258;28;20052;-72
2023/05/05 13:59:38;;;;;;;2.47;1.08;;;;;;;20.79;43.10;102180.00;20912215;28;20044;-72
2023/05/05 14:09:39;;;;;;;1.52;0.95;;;;;;;20.81;43.19;102180.63;20912662;28;20095;-72
2023/05/05 14:19:41;;;;;;;1.50;1.13;;;;;;;20.53;43.27;102136.16;20912341;28;20412;-72
2023/05/05 14:29:42;;;;;;;2.60;1.42;;;;;;;20.67;43.17;102170.91;20911327;28;20488;-72
2023/05/05 14:39:43;;;;;;;1.38;1.00;;;;;;;20.84;42.68;102187.59;20910309;28;20047;-72
2023/05/05 14:49:45;;;;;;;1.20;1.10;;;;;;;20.90;42.77;102191.34;20909901;28;20037;-72
2023/05/05 14:59:50;;;;;;;1.98;1.17;;;;;;;20.65;42.83;102156.38;20910359;28;20033;-72
2023/05/05 15:09:51;;;;;;;1.30;1.00;;;;;;;20.93;42.72;102183.31;20909880;28;20484;-72
2023/05/05 15:19:53;;;;;;;2.25;1.02;;;;;;;20.81;42.78;102166.69;20909160;28;20040;-72
2023/05/05 15:29:54;;;;;;;1.65;0.82;;;;;;;20.94;42.72;102175.84;20908953;28;20515;-72
2023/05/05 15:39:55;;;;;;;1.13;1.00;;;;;;;20.94;42.81;102175.84;20906940;28;20033;-72
2023/05/05 15:49:57;;;;;;;2.58;0.98;;;;;;;20.79;42.78;102152.19;20908057;28;20481;-72
2023/05/05 15:59:58;;;;;;;1.35;0.90;;;;;;;20.88;42.93;102174.03;20907609;28;20040;-72
2023/05/05 16:09:59;;;;;;;1.20;0.90;;;;;;;20.89;42.68;102178.50;20919726;28;20044;-72
2023/05/05 16:20:01;;;;;;;1.15;1.00;;;;;;;20.89;42.87;102178.50;20921574;28;20471;-72
2023/05/05 16:30:02;;;;;;;1.80;1.23;;;;;;;20.89;42.92;102165.47;20920557;28;20037;-72
2023/05/05 16:40:04;;;;;;;2.15;0.98;;;;;;;20.88;42.99;102149.00;20919914;28;20029;-72
2023/05/05 16:50:06;;;;;;;2.95;1.00;;;;;;;20.63;42.54;102119.66;20918681;28;20090;-72
2023/05/05 17:00:09;;;;;;;1.02;0.90;;;;;;;20.71;42.49;102124.81;20918427;28;20492;-72
2023/05/05 17:10:10;;;;;;;0.90;0.80;;;;;;;20.80;42.94;102145.56;20917478;28;20488;-72
2023/05/05 17:20:12;;;;;;;1.00;0.75;;;;;;;20.83;42.53;102140.56;20916669;28;20037;-72
2023/05/05 17:30:13;;;;;;;0.75;0.70;;;;;;;20.85;42.82;102150.34;20915864;28;20099;-72
2023/05/05 17:40:15;;;;;;;1.20;0.95;;;;;;;20.86;42.73;102140.91;20916429;28;20086;-72
2023/05/05 17:50:20;;;;;;;1.40;0.82;;;;;;;20.86;42.71;102129.78;20915261;28;20037;-72
2023/05/05 18:00:21;;;;;;;1.00;0.60;;;;;;;20.85;42.56;102141.16;20995029;28;20071;-77
2023/05/05 18:10:23;;;;;;;0.85;0.80;;;;;;;20.73;42.75;102125.38;21005910;28;20556;-76
2023/05/05 18:20:24;;;;;;;1.20;0.80;;;;;;;20.63;42.98;102114.06;20985360;28;20040;-77
2023/05/05 18:30:26;;;;;;;1.52;0.90;;;;;;;20.78;42.59;102131.03;20975636;28;20409;-77
2023/05/05 18:40:27;;;;;;;1.02;0.93;;;;;;;20.81;42.94;102122.19;20971844;28;20544;-78
2023/05/05 18:50:29;;;;;;;4.65;1.27;;;;;;;20.80;42.75;102112.16;20985033;28;20503;-71
2023/05/05 19:00:30;;;;;;;1.58;0.93;;;;;;;20.74;42.69;102104.81;20994373;28;20109;-73
2023/05/05 19:10:31;;;;;;;1.48;0.70;;;;;;;20.80;42.87;102109.38;20994169;28;20051;-74
2023/05/05 19:20:33;;;;;;;1.67;0.80;;;;;;;20.77;42.68;102101.53;20995040;28;20043;-74
2023/05/05 19:30:34;;;;;;;1.92;0.90;;;;;;;20.86;42.86;102101.13;20993287;28;20101;-73
2023/05/05 19:40:39;;;;;;;1.08;0.70;;;;;;;20.84;42.79;102104.13;20997842;28;20106;-73
2023/05/05 19:50:41;;;;;;;1.10;1.00;;;;;;;20.83;42.76;102090.50;21007356;28;20356;-73
2023/05/05 20:00:42;;;;;;;0.93;0.60;;;;;;;20.87;42.70;102092.50;21006056;28;20059;-73
2023/05/05 20:10:43;;;;;;;1.20;0.70;;;;;;;20.85;42.99;102091.06;21005974;28;20425;-74
2023/05/05 20:20:45;;;;;;;1.42;0.90;;;;;;;20.86;42.84;102095.56;21004936;28;20460;-74
2023/05/05 20:30:46;;;;;;;3.75;0.82;;;;;;;20.82;42.79;102095.22;21004068;28;20384;-73
2023/05/05 20:40:48;;;;;;;1.30;0.80;;;;;;;20.81;42.93;102086.03;21002906;28;20043;-73
2023/05/05 20:50:50;;;;;;;1.60;0.85;;;;;;;20.85;43.03;102083.59;21000931;28;20037;-73
2023/05/05 21:00:52;;;;;;;1.00;0.80;;;;;;;20.86;42.84;102090.00;21000834;28;20044;-73
2023/05/05 21:10:53;;;;;;;2.15;0.93;;;;;;;20.83;42.66;102101.63;21001400;28;20040;-73
2023/05/05 21:20:55;;;;;;;0.93;0.70;;;;;;;20.85;42.92;102116.97;20999698;28;20369;-73
2023/05/05 21:30:56;;;;;;;1.77;0.80;;;;;;;20.79;42.80;102113.25;20998661;28;20066;-73
2023/05/05 21:40:58;;;;;;;2.17;0.70;;;;;;;20.86;42.93;102123.38;20998063;28;20040;-74
2023/05/05 21:50:59;;;;;;;1.00;0.90;;;;;;;20.87;42.84;102150.94;20995872;28;20044;-73
2023/05/05 22:01:01;;;;;;;1.27;0.70;;;;;;;20.87;42.79;102147.31;20995579;28;20067;-74
2023/05/05 22:11:02;;;;;;;2.10;0.45;;;;;;;20.78;42.56;102138.53;20995840;28;20098;-74
2023/05/05 22:21:04;;;;;;;1.00;0.82;;;;;;;20.84;42.79;102158.94;20994583;28;20145;-73
2023/05/05 22:31:05;;;;;;;0.82;0.70;;;;;;;20.84;42.85;102158.94;20993366;28;20433;-73
2023/05/05 22:41:07;;;;;;;2.03;0.98;;;;;;;20.86;42.85;102163.16;20994034;28;20049;-74
2023/05/05 22:51:11;;;;;;;0.73;0.50;;;;;;;20.85;42.75;102164.28;20992786;28;20044;-74
2023/05/05 23:01:12;;;;;;;0.93;0.82;;;;;;;20.86;42.66;102179.03;20992211;28;20438;-74
2023/05/05 23:11:14;;;;;;;0.70;0.68;;;;;;;20.83;42.64;102168.38;20992678;28;20032;-74
2023/05/05 23:21:18;;;;;;;2.10;0.60;;;;;;;20.83;42.45;102177.56;21008567;28;20048;-73
2023/05/05 23:31:19;;;;;;;0.90;0.55;;;;;;;20.88;42.70;102185.16;21007430;28;20387;-73
2023/05/05 23:41:20;;;;;;;0.70;0.55;;;;;;;20.87;42.68;102191.84;21007067;28;20070;-74
2023/05/05 23:51:22;;;;;;;0.60;0.60;;;;;;;20.85;42.68;102202.34;21005099;28;20434;-74
